createdAt,value
2019-01-19T00:02:36.768Z,63.57
2019-01-19T00:05:25.737Z,56.17
2019-01-19T00:08:09.169Z,57.40
2019-01-19T00:10:44.210Z,63.57
2019-01-19T00:13:33.876Z,66.97
2019-01-19T00:16:07.272Z,61.43
2019-01-19T00:18:46.608Z,62.57
2019-01-19T00:21:36.996Z,63.77
2019-01-19T00:24:26.376Z,72.50
2019-01-19T00:27:15.436Z,73.57
2019-01-19T00:29:59.488Z,68.50
2019-01-19T00:32:36.460Z,62.13
2019-01-19T00:38:30.669Z,62.03
2019-01-19T00:41:24.644Z,57.13
2019-01-19T00:44:07.560Z,56.63
2019-01-19T00:46:56.416Z,63.60
2019-01-19T00:49:29.513Z,53.57
2019-01-19T00:52:18.668Z,53.07
2019-01-19T00:54:57.808Z,58.20
2019-01-19T00:57:47.177Z,50.90
2019-01-19T01:00:21.798Z,55.37
2019-01-19T01:03:11.479Z,50.50
2019-01-19T01:05:59.826Z,48.43
2019-01-19T01:08:43.359Z,57.93
2019-01-19T01:11:16.446Z,49.87
2019-01-19T01:14:05.094Z,58.67
2019-01-19T01:16:53.746Z,50.80
2019-01-19T01:19:35.435Z,53.93
2019-01-19T01:22:20.308Z,49.03
2019-01-19T01:25:09.409Z,48.80
2019-01-19T01:27:45.098Z,52.73
2019-01-19T01:30:23.018Z,57.00
2019-01-19T01:33:11.796Z,54.27
2019-01-19T01:36:00.837Z,50.93
2019-01-19T01:38:49.698Z,48.97
2019-01-19T01:41:39.276Z,47.30
2019-01-19T01:44:28.087Z,47.50
2019-01-19T01:47:11.086Z,47.23
2019-01-19T01:49:47.419Z,47.37
2019-01-19T01:52:36.370Z,47.43
2019-01-19T01:55:14.989Z,48.60
2019-01-19T01:57:48.686Z,47.17
2019-01-19T02:00:37.448Z,46.77
2019-01-19T02:03:26.616Z,48.30
2019-01-19T02:06:01.759Z,54.50
2019-01-19T02:08:50.717Z,51.77
2019-01-19T02:11:39.669Z,49.93
2019-01-19T02:14:28.730Z,52.67
2019-01-19T02:17:17.588Z,51.07
2019-01-19T02:19:55.388Z,51.60
2019-01-19T02:22:45.088Z,44.27
2019-01-19T02:25:33.937Z,44.60
2019-01-19T02:28:23.096Z,44.20
2019-01-19T02:31:12.072Z,45.83
2019-01-19T02:33:46.897Z,46.37
2019-01-19T02:36:35.552Z,42.83
2019-01-19T02:39:24.397Z,48.57
2019-01-19T02:41:59.437Z,47.63
2019-01-19T02:44:41.337Z,35.63
2019-01-19T02:47:30.107Z,47.07
2019-01-19T02:50:04.831Z,47.90
2019-01-19T02:52:41.279Z,48.80
2019-01-19T02:55:17.528Z,46.07
2019-01-19T02:57:59.427Z,45.13
2019-01-19T03:00:48.489Z,46.13
2019-01-19T03:03:37.357Z,45.67
2019-01-19T03:06:13.718Z,46.93
2019-01-19T03:09:02.569Z,40.07
2019-01-19T03:11:38.343Z,42.00
2019-01-19T03:14:26.879Z,40.93
2019-01-19T03:17:15.729Z,40.27
2019-01-19T03:20:04.589Z,40.97
2019-01-19T03:22:53.648Z,39.33
2019-01-19T03:25:35.447Z,38.10
2019-01-19T03:28:09.877Z,37.90
2019-01-19T03:30:58.638Z,36.43
2019-01-19T03:33:47.499Z,42.80
2019-01-19T03:36:24.777Z,46.77
2019-01-19T03:38:59.589Z,40.50
2019-01-19T03:41:48.879Z,36.93
2019-01-19T03:44:38.036Z,40.30
2019-01-19T03:47:26.890Z,39.13
2019-01-19T03:50:15.857Z,40.67
2019-01-19T03:52:59.804Z,46.80
2019-01-19T03:55:48.857Z,40.73
2019-01-19T03:58:21.859Z,40.77
2019-01-19T04:01:11.522Z,46.30
2019-01-19T04:03:53.840Z,43.60
2019-01-19T04:06:51.397Z,39.53
2019-01-19T04:09:40.858Z,38.47
2019-01-19T04:12:29.707Z,37.47
2019-01-19T04:15:10.687Z,37.80
2019-01-19T04:17:57.818Z,44.97
2019-01-19T04:20:41.098Z,35.23
2019-01-19T04:23:14.337Z,36.90
2019-01-19T04:25:58.778Z,45.83
2019-01-19T04:28:28.800Z,41.27
2019-01-19T04:30:59.217Z,42.97
2019-01-19T04:33:29.430Z,41.97
2019-01-19T04:35:59.759Z,38.63
2019-01-19T04:38:30.903Z,35.33
2019-01-19T04:41:01.440Z,36.40
2019-01-19T04:43:31.447Z,31.83
2019-01-19T04:46:01.589Z,38.60
2019-01-19T04:48:35.280Z,37.27
2019-01-19T04:51:05.387Z,32.53
2019-01-19T04:53:35.502Z,31.50
2019-01-19T04:56:06.356Z,32.17
2019-01-19T04:58:36.781Z,32.53
2019-01-19T05:01:07.203Z,37.50
2019-01-19T05:03:39.387Z,31.93
2019-01-19T05:06:12.470Z,34.17
2019-01-19T05:08:40.927Z,32.53
2019-01-19T05:11:11.095Z,30.57
2019-01-19T05:13:41.070Z,32.77
2019-01-19T05:16:11.346Z,28.80
2019-01-19T05:18:41.306Z,39.47
2019-01-19T05:21:11.644Z,33.20
2019-01-19T05:23:42.278Z,33.27
2019-01-19T05:26:12.477Z,38.30
2019-01-19T05:28:42.596Z,33.43
2019-01-19T05:31:12.848Z,41.77
2019-01-19T05:33:42.537Z,36.00
2019-01-19T05:36:12.540Z,31.70
2019-01-19T05:38:42.663Z,34.00
2019-01-19T05:41:12.909Z,31.27
2019-01-19T05:43:42.816Z,32.33
2019-01-19T05:46:12.820Z,33.13
2019-01-19T05:48:43.057Z,36.60
2019-01-19T05:51:13.879Z,34.90
2019-01-19T05:53:44.402Z,33.23
2019-01-19T05:56:14.727Z,39.33
2019-01-19T05:58:44.747Z,38.07
2019-01-19T06:01:15.473Z,39.57
2019-01-19T06:03:47.961Z,36.20
2019-01-19T06:06:25.443Z,42.67
2019-01-19T06:08:59.958Z,41.83
2019-01-19T06:11:31.716Z,55.90
2019-01-19T06:14:02.546Z,59.13
2019-01-19T06:16:32.899Z,82.03
2019-01-19T06:19:03.327Z,84.83
2019-01-19T06:21:37.527Z,76.27
2019-01-19T06:24:09.472Z,62.73
2019-01-19T06:26:39.198Z,66.53
2019-01-19T06:29:09.727Z,60.70
2019-01-19T06:31:39.647Z,54.07
2019-01-19T06:34:09.764Z,55.97
2019-01-19T06:36:40.081Z,55.70
2019-01-19T06:39:10.611Z,51.67
2019-01-19T06:41:41.086Z,50.07
2019-01-19T06:44:11.141Z,44.77
2019-01-19T06:46:41.368Z,41.13
2019-01-19T06:49:12.623Z,47.70
2019-01-19T06:54:24.746Z,44.43
2019-01-19T06:59:31.439Z,37.93
2019-01-19T07:02:02.457Z,36.77
2019-01-19T07:04:34.012Z,34.73
2019-01-19T07:07:04.646Z,47.60
2019-01-19T07:09:38.654Z,41.20
2019-01-19T07:12:10.827Z,45.70
2019-01-19T07:14:42.278Z,40.50
2019-01-19T07:17:13.638Z,37.53
2019-01-19T07:19:46.406Z,38.80
2019-01-19T07:22:17.859Z,39.57
2019-01-19T07:24:48.686Z,37.27
2019-01-19T07:27:18.488Z,40.83
2019-01-19T07:29:48.719Z,38.50
2019-01-19T07:32:20.788Z,36.63
2019-01-19T07:34:50.807Z,40.27
2019-01-19T07:37:20.808Z,40.57
2019-01-19T07:39:55.843Z,42.23
2019-01-19T07:42:27.809Z,39.43
2019-01-19T07:44:58.438Z,38.47
2019-01-19T07:47:29.692Z,37.27
2019-01-19T07:50:00.260Z,42.63
2019-01-19T07:52:34.727Z,42.60
2019-01-19T07:57:45.427Z,36.97
2019-01-19T08:00:17.688Z,38.80
2019-01-19T08:02:51.491Z,38.27
2019-01-19T08:05:25.610Z,41.13
2019-01-19T08:08:01.562Z,51.23
2019-01-19T08:10:37.313Z,37.33
2019-01-19T08:13:12.859Z,37.90
2019-01-19T08:15:45.298Z,50.00
2019-01-19T08:18:24.451Z,41.47
2019-01-19T08:20:55.709Z,41.83
2019-01-19T08:23:26.261Z,57.60
2019-01-19T08:26:06.389Z,48.57
2019-01-19T08:28:40.910Z,38.57
2019-01-19T08:31:13.104Z,46.57
2019-01-19T08:33:48.731Z,41.10
2019-01-19T08:36:21.619Z,40.37
2019-01-19T08:38:51.858Z,43.27
2019-01-19T08:41:23.899Z,44.67
2019-01-19T08:43:56.988Z,46.40
2019-01-19T08:46:27.401Z,51.80
2019-01-19T08:49:00.609Z,73.60
2019-01-19T08:51:30.532Z,45.37
2019-01-19T08:54:00.766Z,50.13
2019-01-19T08:56:31.928Z,49.07
2019-01-19T08:59:02.720Z,47.27
2019-01-19T09:01:32.648Z,37.87
2019-01-19T09:04:05.218Z,45.60
2019-01-19T09:06:35.330Z,41.23
2019-01-19T09:09:09.638Z,48.63
2019-01-19T09:11:39.975Z,48.43
2019-01-19T09:14:11.321Z,66.27
2019-01-19T09:16:41.833Z,53.57
2019-01-19T09:19:11.959Z,40.57
2019-01-19T09:21:41.879Z,38.53
2019-01-19T09:24:17.628Z,47.43
2019-01-19T09:26:49.487Z,39.70
2019-01-19T09:29:20.447Z,36.80
2019-01-19T09:31:53.200Z,43.57
2019-01-19T09:34:25.887Z,44.20
2019-01-19T09:36:57.448Z,43.37
2019-01-19T09:39:27.967Z,44.73
2019-01-19T09:41:58.520Z,44.80
2019-01-19T09:44:29.959Z,43.00
2019-01-19T09:47:02.007Z,45.00
2019-01-19T09:49:32.086Z,41.97
2019-01-19T09:52:02.558Z,48.10
2019-01-19T09:54:34.007Z,37.67
2019-01-19T09:57:05.247Z,34.57
2019-01-19T09:59:37.087Z,37.10
2019-01-19T10:02:12.447Z,33.70
2019-01-19T10:04:47.990Z,33.57
2019-01-19T10:07:19.350Z,35.10
2019-01-19T10:09:51.407Z,31.50
2019-01-19T10:12:24.949Z,36.77
2019-01-19T10:15:00.967Z,35.37
2019-01-19T10:17:32.315Z,37.00
2019-01-19T10:20:07.881Z,35.37
2019-01-19T10:22:39.839Z,37.77
2019-01-19T10:25:13.559Z,35.97
2019-01-19T10:27:56.334Z,40.43
2019-01-19T10:30:30.680Z,44.27
2019-01-19T10:33:03.134Z,41.97
2019-01-19T10:35:42.481Z,42.73
2019-01-19T10:38:15.559Z,41.90
2019-01-19T10:40:45.791Z,41.07
2019-01-19T10:43:21.728Z,38.27
2019-01-19T10:45:52.047Z,38.50
2019-01-19T10:48:34.162Z,38.00
2019-01-19T11:03:55.035Z,44.07
2019-01-19T11:06:42.137Z,41.93
2019-01-19T11:09:19.682Z,45.97
2019-01-19T11:12:06.363Z,44.03
2019-01-19T11:14:40.283Z,41.03
2019-01-19T11:23:50.852Z,43.07
2019-01-19T11:26:26.337Z,38.03
2019-01-19T11:31:53.114Z,36.73
2019-01-19T11:34:49.433Z,39.50
2019-01-19T11:37:24.554Z,35.10
2019-01-19T11:40:10.441Z,37.13
2019-01-19T11:42:48.553Z,35.77
2019-01-19T11:49:23.233Z,35.83
2019-01-19T11:59:02.522Z,35.77
2019-01-19T12:01:36.609Z,35.83
2019-01-19T12:04:40.123Z,33.53
2019-01-19T12:07:26.276Z,47.50
2019-01-19T12:10:24.563Z,31.60
2019-01-19T12:13:32.075Z,36.70
2019-01-19T12:26:27.634Z,39.43
2019-01-19T12:29:32.802Z,38.47
2019-01-19T12:32:15.003Z,33.27
2019-01-19T12:38:12.036Z,35.80
2019-01-19T12:40:45.674Z,29.50
2019-01-19T12:43:27.873Z,26.73
2019-01-19T12:46:28.035Z,18.73
2019-01-19T12:49:05.188Z,9.03
2019-01-19T12:51:34.873Z,15.20
2019-01-19T12:54:05.393Z,15.87
2019-01-19T12:56:36.434Z,21.90
2019-01-19T12:59:07.362Z,27.00
2019-01-19T13:01:40.961Z,27.80
2019-01-19T13:04:15.234Z,26.43
2019-01-19T13:06:51.674Z,24.33
2019-01-19T13:09:35.601Z,31.63
2019-01-19T13:12:08.788Z,27.77
2019-01-19T13:14:41.801Z,27.43
2019-01-19T13:17:28.802Z,24.57
2019-01-19T13:20:09.914Z,28.40
2019-01-19T13:22:51.869Z,17.63
2019-01-19T13:25:41.642Z,13.23
2019-01-19T13:28:19.889Z,14.87
2019-01-19T13:31:02.793Z,17.13
2019-01-19T13:33:53.922Z,17.07
2019-01-19T13:36:45.208Z,22.13
2019-01-19T13:39:26.081Z,19.63
2019-01-19T13:42:16.308Z,24.90
2019-01-19T13:45:09.321Z,27.03
2019-01-19T13:47:59.801Z,20.10
2019-01-19T13:50:52.881Z,24.57
2019-01-19T13:53:42.874Z,17.57
2019-01-19T13:56:19.925Z,20.80
2019-01-19T13:58:56.914Z,14.00
2019-01-19T14:01:46.097Z,17.47
2019-01-19T14:04:28.704Z,16.33
2019-01-19T14:07:11.722Z,16.03
2019-01-19T14:10:00.777Z,17.80
2019-01-19T14:12:45.753Z,23.37
2019-01-19T14:15:35.821Z,29.37
2019-01-19T14:18:11.090Z,22.33
2019-01-19T14:20:51.353Z,22.73
2019-01-19T14:23:41.522Z,18.73
2019-01-19T14:26:31.505Z,36.90
2019-01-19T14:29:24.441Z,23.13
2019-01-19T14:32:10.233Z,25.27
2019-01-19T14:34:59.825Z,31.27
2019-01-19T14:37:49.787Z,37.17
2019-01-19T14:40:31.068Z,33.77
2019-01-19T14:43:07.241Z,33.67
2019-01-19T14:45:53.633Z,83.90
2019-01-19T14:48:42.713Z,39.93
2019-01-19T14:51:32.194Z,30.67
2019-01-19T14:54:21.041Z,27.83
2019-01-19T14:57:09.881Z,41.10
2019-01-19T14:59:46.348Z,45.87
2019-01-19T15:02:36.042Z,48.23
2019-01-19T15:05:12.722Z,51.37
2019-01-19T15:08:04.553Z,47.73
2019-01-19T15:10:54.914Z,34.80
2019-01-19T15:13:43.801Z,32.13
2019-01-19T15:16:32.873Z,32.23
2019-01-19T15:19:07.481Z,29.70
2019-01-19T15:21:56.627Z,25.23
2019-01-19T15:24:32.713Z,28.73
2019-01-19T15:27:21.636Z,27.30
2019-01-19T15:30:01.825Z,27.17
2019-01-19T15:32:50.881Z,45.57
2019-01-19T15:35:39.842Z,297.33
2019-01-19T15:38:23.048Z,266.97
2019-01-19T15:41:13.370Z,473.67
2019-01-19T15:43:55.993Z,219.50
2019-01-19T15:46:47.082Z,180.27
2019-01-19T15:49:36.748Z,179.30
2019-01-19T15:52:11.894Z,189.53
2019-01-19T15:54:50.713Z,448.30
2019-01-19T15:57:41.708Z,639.80
2019-01-19T16:00:34.113Z,457.60
2019-01-19T16:03:21.393Z,354.97
2019-01-19T16:06:14.429Z,247.20
2019-01-19T16:08:52.434Z,185.33
2019-01-19T16:11:33.001Z,180.13
2019-01-19T16:14:13.073Z,209.13
2019-01-19T16:17:05.911Z,266.90
2019-01-19T16:19:59.117Z,254.80
2019-01-19T16:22:54.460Z,316.70
2019-01-19T16:25:45.514Z,290.27
2019-01-19T16:28:40.089Z,475.53
2019-01-19T16:31:31.162Z,410.77
2019-01-19T16:34:24.228Z,364.23
2019-01-19T16:37:01.830Z,322.97
2019-01-19T16:39:48.032Z,269.60
2019-01-19T16:42:32.788Z,236.70
2019-01-19T16:45:22.882Z,227.10
2019-01-19T16:48:03.952Z,185.33
2019-01-19T16:50:47.481Z,182.37
2019-01-19T16:53:27.841Z,158.67
2019-01-19T16:56:21.013Z,236.47
2019-01-19T16:59:10.882Z,189.97
2019-01-19T17:02:11.428Z,202.53
2019-01-19T17:05:04.473Z,179.60
2019-01-19T17:07:52.004Z,188.07
2019-01-19T17:10:45.941Z,183.70
2019-01-19T17:13:38.229Z,167.57
2019-01-19T17:16:29.242Z,159.73
2019-01-19T17:19:18.834Z,162.33
2019-01-19T17:22:04.921Z,174.47
2019-01-19T17:24:54.881Z,158.47
2019-01-19T17:27:45.368Z,133.70
2019-01-19T17:30:23.913Z,148.63
2019-01-19T17:32:59.228Z,95.03
2019-01-19T17:35:48.114Z,79.80
2019-01-19T17:38:22.833Z,71.40
2019-01-19T17:41:11.796Z,71.40
2019-01-19T17:43:45.796Z,62.80
2019-01-19T17:46:38.089Z,66.50
2019-01-19T17:49:31.698Z,69.60
2019-01-19T17:52:25.668Z,70.90
2019-01-19T17:55:12.002Z,73.47
2019-01-19T17:58:01.540Z,76.93
2019-01-19T18:00:51.034Z,89.73
2019-01-19T18:03:33.441Z,106.87
2019-01-19T18:06:30.982Z,107.30
2019-01-19T18:09:23.841Z,111.33
2019-01-19T18:12:12.802Z,100.27
2019-01-19T18:15:01.761Z,98.27
2019-01-19T18:17:50.802Z,94.37
2019-01-19T18:20:29.428Z,96.80
2019-01-19T18:23:18.633Z,94.23
2019-01-19T18:25:55.913Z,95.73
2019-01-19T18:28:35.644Z,91.23
2019-01-19T18:31:24.602Z,89.57
2019-01-19T18:34:13.881Z,95.07
2019-01-19T18:37:03.044Z,97.33
2019-01-19T18:39:55.003Z,94.97
2019-01-19T18:42:38.011Z,115.80
2019-01-19T18:45:27.883Z,198.87
2019-01-19T18:48:01.704Z,170.53
2019-01-19T18:50:51.911Z,204.50
2019-01-19T18:53:45.322Z,178.30
2019-01-19T18:56:36.026Z,235.37
2019-01-19T18:59:25.122Z,256.07
2019-01-19T19:02:10.769Z,320.60
2019-01-19T19:05:10.082Z,289.93
2019-01-19T19:07:59.349Z,276.70
2019-01-19T19:10:48.634Z,271.07
2019-01-19T19:13:25.805Z,240.90
2019-01-19T19:16:15.689Z,241.50
2019-01-19T19:18:52.674Z,234.30
2019-01-19T19:21:37.954Z,303.20
2019-01-19T19:24:17.281Z,334.70
2019-01-19T19:27:08.482Z,302.87
2019-01-19T19:29:58.994Z,282.40
2019-01-19T19:32:40.362Z,285.83
2019-01-19T19:35:15.810Z,297.43
2019-01-19T19:38:04.673Z,359.80
2019-01-19T19:40:40.834Z,366.90
2019-01-19T19:43:30.514Z,324.70
2019-01-19T19:46:21.404Z,426.83
2019-01-19T19:49:10.487Z,321.67
2019-01-19T19:51:59.843Z,438.13
2019-01-19T19:54:36.926Z,403.07
2019-01-19T19:57:07.362Z,409.87
2019-01-19T19:59:37.475Z,417.63
2019-01-19T20:02:08.201Z,331.87
2019-01-19T20:04:38.723Z,278.97
2019-01-19T20:07:10.470Z,219.77
2019-01-19T20:09:40.802Z,234.03
2019-01-19T20:12:11.445Z,385.33
2019-01-19T20:14:41.674Z,341.70
2019-01-19T20:17:12.002Z,335.83
2019-01-19T20:19:42.833Z,245.33
2019-01-19T20:22:12.957Z,239.60
2019-01-19T20:24:43.801Z,294.53
2019-01-19T20:27:14.122Z,370.90
2019-01-19T20:29:44.434Z,361.60
2019-01-19T20:32:15.049Z,386.10
2019-01-19T20:34:45.482Z,318.63
2019-01-19T20:37:16.002Z,332.93
2019-01-19T20:39:46.322Z,311.10
2019-01-19T20:42:16.444Z,348.37
2019-01-19T20:44:46.885Z,344.53
2019-01-19T20:47:17.289Z,355.93
2019-01-19T20:49:47.609Z,346.23
2019-01-19T20:52:17.674Z,348.10
2019-01-19T20:54:47.749Z,306.90
2019-01-19T20:57:18.481Z,240.87
2019-01-19T20:59:49.218Z,219.30
2019-01-19T21:02:19.328Z,232.97
2019-01-19T21:04:53.448Z,198.87
2019-01-19T21:07:32.478Z,186.60
2019-01-19T21:12:54.939Z,170.80
2019-01-19T21:15:25.675Z,177.67
2019-01-19T21:18:15.962Z,178.43
2019-01-19T21:21:26.115Z,182.93
2019-01-19T21:24:16.602Z,162.90
2019-01-19T21:26:51.042Z,220.90
2019-01-19T21:29:20.949Z,215.30
2019-01-19T21:31:52.801Z,189.97
2019-01-19T21:34:23.346Z,184.47
2019-01-19T21:36:54.090Z,187.37
2019-01-19T21:39:24.394Z,162.93
2019-01-19T21:41:59.138Z,170.17
2019-01-19T21:44:29.753Z,191.47
2019-01-19T21:46:59.754Z,176.20
2019-01-19T21:49:29.681Z,177.20
2019-01-19T21:52:01.129Z,193.80
2019-01-19T21:54:32.771Z,184.57
2019-01-19T21:57:04.842Z,179.97
2019-01-19T21:59:35.905Z,173.43
2019-01-19T22:02:06.746Z,155.13
2019-01-19T22:04:38.282Z,163.50
2019-01-19T22:07:09.817Z,144.33
2019-01-19T22:09:41.394Z,167.90
2019-01-19T22:12:12.217Z,131.20
2019-01-19T22:14:44.081Z,128.40
2019-01-19T22:17:17.074Z,142.80
2019-01-19T22:19:48.934Z,163.40
2019-01-19T22:22:20.879Z,193.73
2019-01-19T22:24:53.974Z,226.20
2019-01-19T22:27:25.416Z,197.17
2019-01-19T22:29:56.869Z,191.73
2019-01-19T22:32:29.754Z,209.07
2019-01-19T22:34:59.761Z,209.87
2019-01-19T22:37:29.782Z,213.07
2019-01-19T22:40:00.518Z,189.20
2019-01-19T22:42:30.742Z,204.17
2019-01-19T22:45:00.442Z,201.57
2019-01-19T22:47:30.761Z,191.40
2019-01-19T22:50:00.794Z,194.57
2019-01-19T22:52:30.716Z,206.40
2019-01-19T22:55:00.402Z,263.37
2019-01-19T22:57:30.342Z,221.77
2019-01-19T23:00:00.341Z,237.07
2019-01-19T23:02:31.293Z,237.17
2019-01-19T23:05:01.390Z,246.63
2019-01-19T23:07:32.122Z,267.67
2019-01-19T23:10:02.044Z,251.93
2019-01-19T23:12:32.063Z,224.30
2019-01-19T23:15:02.082Z,230.40
2019-01-19T23:17:31.894Z,227.67
2019-01-19T23:20:01.706Z,230.97
2019-01-19T23:22:31.809Z,247.07
2019-01-19T23:25:01.862Z,203.53
2019-01-19T23:27:32.154Z,199.80
2019-01-19T23:30:02.794Z,191.30
2019-01-19T23:32:32.694Z,197.27
2019-01-19T23:35:02.922Z,186.83
2019-01-19T23:37:33.456Z,186.47
2019-01-19T23:40:03.158Z,195.67
2019-01-19T23:42:33.190Z,191.60
2019-01-19T23:45:03.402Z,186.63
2019-01-19T23:47:32.905Z,195.93
2019-01-19T23:50:02.729Z,188.97
2019-01-19T23:52:32.736Z,150.17
2019-01-19T23:55:02.242Z,154.43
2019-01-19T23:57:32.090Z,140.13
